sensor_id;sensor_type;location;lat;lon;timestamp;temperature;humidity
46492;DHT22;32206;51.446;6.792;2022-08-07T00:00:44;17.30;99.90
46492;DHT22;32206;51.446;6.792;2022-08-07T00:03:10;17.30;99.90
46492;DHT22;32206;51.446;6.792;2022-08-07T00:05:36;17.20;99.90
46492;DHT22;32206;51.446;6.792;2022-08-07T00:08:02;17.20;99.90
46492;DHT22;32206;51.446;6.792;2022-08-07T00:10:29;17.20;99.90
46492;DHT22;32206;51.446;6.792;2022-08-07T00:12:55;17.20;99.90
46492;DHT22;32206;51.446;6.792;2022-08-07T00:15:21;17.20;99.90
46492;DHT22;32206;51.446;6.792;2022-08-07T00:17:47;17.10;99.90
46492;DHT22;32206;51.446;6.792;2022-08-07T00:20:12;17.10;99.90
46492;DHT22;32206;51.446;6.792;2022-08-07T00:22:38;17.00;99.90
46492;DHT22;32206;51.446;6.792;2022-08-07T00:25:06;17.00;99.90
46492;DHT22;32206;51.446;6.792;2022-08-07T00:27:31;17.00;99.90
46492;DHT22;32206;51.446;6.792;2022-08-07T00:29:57;17.00;99.90
46492;DHT22;32206;51.446;6.792;2022-08-07T00:32:23;17.00;99.90
46492;DHT22;32206;51.446;6.792;2022-08-07T00:34:48;16.90;99.90
46492;DHT22;32206;51.446;6.792;2022-08-07T00:37:15;16.90;99.90
46492;DHT22;32206;51.446;6.792;2022-08-07T00:39:41;16.90;99.90
46492;DHT22;32206;51.446;6.792;2022-08-07T00:42:06;16.80;99.90
46492;DHT22;32206;51.446;6.792;2022-08-07T00:44:33;16.80;99.90
46492;DHT22;32206;51.446;6.792;2022-08-07T00:47:00;16.80;99.90
46492;DHT22;32206;51.446;6.792;2022-08-07T00:49:25;16.80;99.90
46492;DHT22;32206;51.446;6.792;2022-08-07T00:51:51;16.80;99.90
46492;DHT22;32206;51.446;6.792;2022-08-07T00:54:17;16.80;99.90
46492;DHT22;32206;51.446;6.792;2022-08-07T00:56:42;16.70;99.90
46492;DHT22;32206;51.446;6.792;2022-08-07T00:59:09;16.70;99.90
46492;DHT22;32206;51.446;6.792;2022-08-07T01:01:34;16.70;1.00
46492;DHT22;32206;51.446;6.792;2022-08-07T01:04:07;16.70;1.00
46492;DHT22;32206;51.446;6.792;2022-08-07T01:06:33;16.60;1.00
46492;DHT22;32206;51.446;6.792;2022-08-07T01:08:59;16.60;1.00
46492;DHT22;32206;51.446;6.792;2022-08-07T01:11:25;16.60;1.00
46492;DHT22;32206;51.446;6.792;2022-08-07T01:13:51;16.50;1.00
46492;DHT22;32206;51.446;6.792;2022-08-07T01:16:17;16.50;1.00
46492;DHT22;32206;51.446;6.792;2022-08-07T01:18:43;16.50;1.00
46492;DHT22;32206;51.446;6.792;2022-08-07T01:21:12;16.50;1.00
46492;DHT22;32206;51.446;6.792;2022-08-07T01:23:40;16.40;1.00
46492;DHT22;32206;51.446;6.792;2022-08-07T01:26:07;16.40;1.00
46492;DHT22;32206;51.446;6.792;2022-08-07T01:28:34;16.40;1.00
46492;DHT22;32206;51.446;6.792;2022-08-07T01:31:00;16.40;1.00
46492;DHT22;32206;51.446;6.792;2022-08-07T01:33:27;16.40;1.00
46492;DHT22;32206;51.446;6.792;2022-08-07T01:35:53;16.30;1.00
46492;DHT22;32206;51.446;6.792;2022-08-07T01:38:20;16.30;1.00
46492;DHT22;32206;51.446;6.792;2022-08-07T01:40:48;16.40;1.00
46492;DHT22;32206;51.446;6.792;2022-08-07T01:43:14;16.30;1.00
46492;DHT22;32206;51.446;6.792;2022-08-07T01:45:41;16.30;1.00
46492;DHT22;32206;51.446;6.792;2022-08-07T01:48:07;16.30;1.00
46492;DHT22;32206;51.446;6.792;2022-08-07T01:50:35;16.30;1.00
46492;DHT22;32206;51.446;6.792;2022-08-07T01:53:03;16.30;1.00
46492;DHT22;32206;51.446;6.792;2022-08-07T01:55:36;16.20;1.00
46492;DHT22;32206;51.446;6.792;2022-08-07T01:58:08;16.20;1.00
46492;DHT22;32206;51.446;6.792;2022-08-07T02:00:36;16.20;1.00
46492;DHT22;32206;51.446;6.792;2022-08-07T02:03:09;16.20;1.00
46492;DHT22;32206;51.446;6.792;2022-08-07T02:05:43;16.20;1.00
46492;DHT22;32206;51.446;6.792;2022-08-07T02:08:15;16.10;1.00
46492;DHT22;32206;51.446;6.792;2022-08-07T02:10:41;16.10;1.00
46492;DHT22;32206;51.446;6.792;2022-08-07T02:13:08;16.10;1.00
46492;DHT22;32206;51.446;6.792;2022-08-07T02:15:37;16.10;1.00
46492;DHT22;32206;51.446;6.792;2022-08-07T02:18:05;16.10;1.00
46492;DHT22;32206;51.446;6.792;2022-08-07T02:20:34;16.00;1.00
46492;DHT22;32206;51.446;6.792;2022-08-07T02:23:02;16.00;1.00
46492;DHT22;32206;51.446;6.792;2022-08-07T02:25:31;16.00;1.00
46492;DHT22;32206;51.446;6.792;2022-08-07T02:27:58;16.00;1.00
46492;DHT22;32206;51.446;6.792;2022-08-07T02:30:25;15.90;1.00
46492;DHT22;32206;51.446;6.792;2022-08-07T02:32:52;15.90;1.00
46492;DHT22;32206;51.446;6.792;2022-08-07T02:35:19;15.90;1.00
46492;DHT22;32206;51.446;6.792;2022-08-07T02:37:46;15.90;1.00
46492;DHT22;32206;51.446;6.792;2022-08-07T02:40:13;15.90;1.00
46492;DHT22;32206;51.446;6.792;2022-08-07T02:42:38;15.90;1.00
46492;DHT22;32206;51.446;6.792;2022-08-07T02:45:06;15.80;1.00
46492;DHT22;32206;51.446;6.792;2022-08-07T02:47:33;15.80;1.00
46492;DHT22;32206;51.446;6.792;2022-08-07T02:49:59;15.70;1.00
46492;DHT22;32206;51.446;6.792;2022-08-07T02:52:40;15.80;1.00
46492;DHT22;32206;51.446;6.792;2022-08-07T02:55:20;15.70;1.00
46492;DHT22;32206;51.446;6.792;2022-08-07T02:57:48;15.60;1.00
46492;DHT22;32206;51.446;6.792;2022-08-07T03:00:15;15.60;1.00
46492;DHT22;32206;51.446;6.792;2022-08-07T03:02:44;15.60;1.00
46492;DHT22;32206;51.446;6.792;2022-08-07T03:05:10;15.60;1.00
46492;DHT22;32206;51.446;6.792;2022-08-07T03:07:38;15.60;1.00
46492;DHT22;32206;51.446;6.792;2022-08-07T03:10:04;15.50;1.00
46492;DHT22;32206;51.446;6.792;2022-08-07T03:12:31;15.50;1.00
46492;DHT22;32206;51.446;6.792;2022-08-07T03:14:59;15.50;1.00
46492;DHT22;32206;51.446;6.792;2022-08-07T03:17:25;15.50;1.00
46492;DHT22;32206;51.446;6.792;2022-08-07T03:19:51;15.50;1.00
46492;DHT22;32206;51.446;6.792;2022-08-07T03:22:20;15.50;1.00
46492;DHT22;32206;51.446;6.792;2022-08-07T03:24:46;15.40;1.00
46492;DHT22;32206;51.446;6.792;2022-08-07T03:27:12;15.40;1.00
46492;DHT22;32206;51.446;6.792;2022-08-07T03:29:44;15.40;1.00
46492;DHT22;32206;51.446;6.792;2022-08-07T03:32:11;15.40;1.00
46492;DHT22;32206;51.446;6.792;2022-08-07T03:34:38;15.30;1.00
46492;DHT22;32206;51.446;6.792;2022-08-07T03:37:06;15.40;1.00
46492;DHT22;32206;51.446;6.792;2022-08-07T03:39:34;15.30;1.00
46492;DHT22;32206;51.446;6.792;2022-08-07T03:42:03;15.30;1.00
46492;DHT22;32206;51.446;6.792;2022-08-07T03:44:30;15.30;1.00
46492;DHT22;32206;51.446;6.792;2022-08-07T03:46:57;15.30;1.00
46492;DHT22;32206;51.446;6.792;2022-08-07T03:49:23;15.30;1.00
46492;DHT22;32206;51.446;6.792;2022-08-07T03:51:49;15.30;1.00
46492;DHT22;32206;51.446;6.792;2022-08-07T03:54:16;15.20;1.00
46492;DHT22;32206;51.446;6.792;2022-08-07T03:56:42;15.20;1.00
46492;DHT22;32206;51.446;6.792;2022-08-07T03:59:11;15.20;1.00
46492;DHT22;32206;51.446;6.792;2022-08-07T04:01:40;15.20;1.00
46492;DHT22;32206;51.446;6.792;2022-08-07T04:04:06;15.20;1.00
46492;DHT22;32206;51.446;6.792;2022-08-07T04:06:32;15.20;1.00
46492;DHT22;32206;51.446;6.792;2022-08-07T04:08:59;15.20;1.00
46492;DHT22;32206;51.446;6.792;2022-08-07T04:11:25;15.20;1.00
46492;DHT22;32206;51.446;6.792;2022-08-07T04:13:52;15.10;1.00
46492;DHT22;32206;51.446;6.792;2022-08-07T04:16:19;15.10;1.00
46492;DHT22;32206;51.446;6.792;2022-08-07T04:18:45;15.10;1.00
46492;DHT22;32206;51.446;6.792;2022-08-07T04:21:11;15.10;1.00
46492;DHT22;32206;51.446;6.792;2022-08-07T04:23:37;15.10;1.00
46492;DHT22;32206;51.446;6.792;2022-08-07T04:26:07;15.00;1.00
46492;DHT22;32206;51.446;6.792;2022-08-07T04:28:33;15.00;1.00
46492;DHT22;32206;51.446;6.792;2022-08-07T04:30:59;15.00;1.00
46492;DHT22;32206;51.446;6.792;2022-08-07T04:33:25;15.00;1.00
46492;DHT22;32206;51.446;6.792;2022-08-07T04:35:52;15.00;1.00
46492;DHT22;32206;51.446;6.792;2022-08-07T04:38:18;15.00;1.00
46492;DHT22;32206;51.446;6.792;2022-08-07T04:40:44;15.00;1.00
46492;DHT22;32206;51.446;6.792;2022-08-07T04:43:10;15.00;1.00
46492;DHT22;32206;51.446;6.792;2022-08-07T04:45:42;15.00;1.00
46492;DHT22;32206;51.446;6.792;2022-08-07T04:50:59;15.00;1.00
46492;DHT22;32206;51.446;6.792;2022-08-07T04:53:55;15.10;1.00
46492;DHT22;32206;51.446;6.792;2022-08-07T04:56:36;15.10;1.00
46492;DHT22;32206;51.446;6.792;2022-08-07T04:59:10;15.10;1.00
46492;DHT22;32206;51.446;6.792;2022-08-07T05:01:46;15.10;1.00
46492;DHT22;32206;51.446;6.792;2022-08-07T05:04:48;15.10;1.00
46492;DHT22;32206;51.446;6.792;2022-08-07T05:07:31;15.10;1.00
46492;DHT22;32206;51.446;6.792;2022-08-07T05:10:15;15.20;1.00
46492;DHT22;32206;51.446;6.792;2022-08-07T05:12:50;15.10;1.00
46492;DHT22;32206;51.446;6.792;2022-08-07T05:15:25;15.20;1.00
46492;DHT22;32206;51.446;6.792;2022-08-07T05:17:55;15.20;1.00
46492;DHT22;32206;51.446;6.792;2022-08-07T05:20:26;15.20;1.00
46492;DHT22;32206;51.446;6.792;2022-08-07T05:22:58;15.30;1.00
46492;DHT22;32206;51.446;6.792;2022-08-07T05:25:26;15.30;1.00
46492;DHT22;32206;51.446;6.792;2022-08-07T05:27:53;15.30;1.00
46492;DHT22;32206;51.446;6.792;2022-08-07T05:30:20;15.30;1.00
46492;DHT22;32206;51.446;6.792;2022-08-07T05:32:47;15.40;1.00
46492;DHT22;32206;51.446;6.792;2022-08-07T05:35:13;15.40;1.00
46492;DHT22;32206;51.446;6.792;2022-08-07T05:37:40;15.50;1.00
46492;DHT22;32206;51.446;6.792;2022-08-07T05:40:08;15.50;1.00
46492;DHT22;32206;51.446;6.792;2022-08-07T05:42:34;15.50;1.00
46492;DHT22;32206;51.446;6.792;2022-08-07T05:45:00;15.60;1.00
46492;DHT22;32206;51.446;6.792;2022-08-07T05:47:26;15.60;1.00
46492;DHT22;32206;51.446;6.792;2022-08-07T05:49:53;15.60;1.00
46492;DHT22;32206;51.446;6.792;2022-08-07T05:52:20;15.60;1.00
46492;DHT22;32206;51.446;6.792;2022-08-07T05:54:46;15.70;1.00
46492;DHT22;32206;51.446;6.792;2022-08-07T05:57:13;15.70;1.00
46492;DHT22;32206;51.446;6.792;2022-08-07T05:59:41;15.70;1.00
46492;DHT22;32206;51.446;6.792;2022-08-07T06:02:08;15.80;1.00
46492;DHT22;32206;51.446;6.792;2022-08-07T06:04:40;15.80;1.00
46492;DHT22;32206;51.446;6.792;2022-08-07T06:07:06;15.90;1.00
46492;DHT22;32206;51.446;6.792;2022-08-07T06:09:33;15.90;1.00
46492;DHT22;32206;51.446;6.792;2022-08-07T06:11:59;16.00;1.00
46492;DHT22;32206;51.446;6.792;2022-08-07T06:14:25;16.10;1.00
46492;DHT22;32206;51.446;6.792;2022-08-07T06:16:51;16.10;1.00
46492;DHT22;32206;51.446;6.792;2022-08-07T06:19:18;16.20;1.00
46492;DHT22;32206;51.446;6.792;2022-08-07T06:21:48;16.20;1.00
46492;DHT22;32206;51.446;6.792;2022-08-07T06:24:14;16.30;1.00
46492;DHT22;32206;51.446;6.792;2022-08-07T06:26:40;16.30;1.00
46492;DHT22;32206;51.446;6.792;2022-08-07T06:29:07;16.40;1.00
46492;DHT22;32206;51.446;6.792;2022-08-07T06:31:34;16.40;1.00
46492;DHT22;32206;51.446;6.792;2022-08-07T06:34:00;16.50;1.00
46492;DHT22;32206;51.446;6.792;2022-08-07T06:36:25;16.50;1.00
46492;DHT22;32206;51.446;6.792;2022-08-07T06:38:52;16.60;99.90
46492;DHT22;32206;51.446;6.792;2022-08-07T06:41:23;16.70;99.90
46492;DHT22;32206;51.446;6.792;2022-08-07T06:43:49;16.70;99.90
46492;DHT22;32206;51.446;6.792;2022-08-07T06:46:16;16.80;99.90
46492;DHT22;32206;51.446;6.792;2022-08-07T06:48:42;16.90;99.90
46492;DHT22;32206;51.446;6.792;2022-08-07T06:51:09;16.90;99.90
46492;DHT22;32206;51.446;6.792;2022-08-07T06:53:39;17.00;99.90
46492;DHT22;32206;51.446;6.792;2022-08-07T06:56:07;17.00;37.70
46492;DHT22;32206;51.446;6.792;2022-08-07T06:58:34;17.10;65.30
46492;DHT22;32206;51.446;6.792;2022-08-07T07:01:03;17.20;1.00
46492;DHT22;32206;51.446;6.792;2022-08-07T07:03:31;17.30;1.00
46492;DHT22;32206;51.446;6.792;2022-08-07T07:05:57;17.40;99.90
46492;DHT22;32206;51.446;6.792;2022-08-07T07:08:27;17.50;1.00
46492;DHT22;32206;51.446;6.792;2022-08-07T07:10:53;17.50;6.60
46492;DHT22;32206;51.446;6.792;2022-08-07T07:13:27;17.60;1.00
46492;DHT22;32206;51.446;6.792;2022-08-07T07:16:00;17.70;1.00
46492;DHT22;32206;51.446;6.792;2022-08-07T07:18:55;17.80;1.00
46492;DHT22;32206;51.446;6.792;2022-08-07T07:21:25;17.90;99.90
46492;DHT22;32206;51.446;6.792;2022-08-07T07:23:53;18.00;99.90
46492;DHT22;32206;51.446;6.792;2022-08-07T07:26:21;18.10;99.90
46492;DHT22;32206;51.446;6.792;2022-08-07T07:28:48;18.20;99.90
46492;DHT22;32206;51.446;6.792;2022-08-07T07:31:32;18.30;1.00
46492;DHT22;32206;51.446;6.792;2022-08-07T07:34:04;18.40;99.90
46492;DHT22;32206;51.446;6.792;2022-08-07T07:36:32;18.40;99.90
46492;DHT22;32206;51.446;6.792;2022-08-07T07:38:59;18.50;99.90
46492;DHT22;32206;51.446;6.792;2022-08-07T07:41:27;18.70;76.20
46492;DHT22;32206;51.446;6.792;2022-08-07T07:43:54;18.60;1.00
46492;DHT22;32206;51.446;6.792;2022-08-07T07:46:22;18.70;58.20
46492;DHT22;32206;51.446;6.792;2022-08-07T07:48:50;18.80;1.00
46492;DHT22;32206;51.446;6.792;2022-08-07T07:51:18;18.90;99.90
46492;DHT22;32206;51.446;6.792;2022-08-07T07:53:46;19.00;99.90
46492;DHT22;32206;51.446;6.792;2022-08-07T07:56:13;19.10;99.90
46492;DHT22;32206;51.446;6.792;2022-08-07T07:58:40;19.10;1.00
46492;DHT22;32206;51.446;6.792;2022-08-07T08:01:08;19.10;19.70
46492;DHT22;32206;51.446;6.792;2022-08-07T08:03:36;19.30;99.90
46492;DHT22;32206;51.446;6.792;2022-08-07T08:06:03;19.40;77.60
46492;DHT22;32206;51.446;6.792;2022-08-07T08:08:31;19.50;1.00
46492;DHT22;32206;51.446;6.792;2022-08-07T08:10:59;19.60;99.90
46492;DHT22;32206;51.446;6.792;2022-08-07T08:13:26;19.70;99.90
46492;DHT22;32206;51.446;6.792;2022-08-07T08:15:54;19.80;99.90
46492;DHT22;32206;51.446;6.792;2022-08-07T08:18:22;19.90;99.90
46492;DHT22;32206;51.446;6.792;2022-08-07T08:20:48;20.00;56.80
46492;DHT22;32206;51.446;6.792;2022-08-07T08:23:16;20.00;87.00
46492;DHT22;32206;51.446;6.792;2022-08-07T08:26:04;20.10;43.80
46492;DHT22;32206;51.446;6.792;2022-08-07T08:28:50;20.20;49.30
46492;DHT22;32206;51.446;6.792;2022-08-07T08:31:22;20.30;47.90
46492;DHT22;32206;51.446;6.792;2022-08-07T08:33:51;20.40;1.00
46492;DHT22;32206;51.446;6.792;2022-08-07T08:36:18;20.40;1.00
46492;DHT22;32206;51.446;6.792;2022-08-07T08:38:46;20.50;1.00
46492;DHT22;32206;51.446;6.792;2022-08-07T08:41:16;20.70;1.00
46492;DHT22;32206;51.446;6.792;2022-08-07T08:44:23;20.70;1.00
46492;DHT22;32206;51.446;6.792;2022-08-07T08:47:11;20.80;1.00
46492;DHT22;32206;51.446;6.792;2022-08-07T08:49:46;20.90;1.00
46492;DHT22;32206;51.446;6.792;2022-08-07T08:52:25;21.00;99.90
46492;DHT22;32206;51.446;6.792;2022-08-07T09:00:09;21.20;99.90
46492;DHT22;32206;51.446;6.792;2022-08-07T09:05:32;21.40;99.90
46492;DHT22;32206;51.446;6.792;2022-08-07T09:08:18;21.50;99.90
46492;DHT22;32206;51.446;6.792;2022-08-07T09:29:59;22.10;99.90
46492;DHT22;32206;51.446;6.792;2022-08-07T09:39:11;22.40;99.90
46492;DHT22;32206;51.446;6.792;2022-08-07T09:41:13;22.60;99.90
46492;DHT22;32206;51.446;6.792;2022-08-07T09:46:52;22.80;99.90
46492;DHT22;32206;51.446;6.792;2022-08-07T09:51:54;23.00;99.90
46492;DHT22;32206;51.446;6.792;2022-08-07T09:54:45;23.10;99.90
46492;DHT22;32206;51.446;6.792;2022-08-07T09:57:37;23.10;99.90
46492;DHT22;32206;51.446;6.792;2022-08-07T10:00:07;23.10;99.90
46492;DHT22;32206;51.446;6.792;2022-08-07T10:02:55;23.20;99.90
46492;DHT22;32206;51.446;6.792;2022-08-07T10:11:20;23.60;99.90
46492;DHT22;32206;51.446;6.792;2022-08-07T10:19:06;23.70;99.90
46492;DHT22;32206;51.446;6.792;2022-08-07T10:27:09;24.00;99.90
46492;DHT22;32206;51.446;6.792;2022-08-07T10:30:06;24.20;99.90
46492;DHT22;32206;51.446;6.792;2022-08-07T10:35:35;24.30;99.90
46492;DHT22;32206;51.446;6.792;2022-08-07T10:40:42;24.40;99.90
46492;DHT22;32206;51.446;6.792;2022-08-07T10:43:16;24.40;99.90
46492;DHT22;32206;51.446;6.792;2022-08-07T10:45:47;24.40;99.90
46492;DHT22;32206;51.446;6.792;2022-08-07T10:51:21;24.70;99.90
46492;DHT22;32206;51.446;6.792;2022-08-07T10:54:15;24.90;99.90
46492;DHT22;32206;51.446;6.792;2022-08-07T11:07:24;25.40;99.90
46492;DHT22;32206;51.446;6.792;2022-08-07T11:09:57;25.60;99.90
46492;DHT22;32206;51.446;6.792;2022-08-07T11:12:39;25.60;99.90
46492;DHT22;32206;51.446;6.792;2022-08-07T11:15:10;25.70;99.90
46492;DHT22;32206;51.446;6.792;2022-08-07T11:17:57;25.80;99.90
46492;DHT22;32206;51.446;6.792;2022-08-07T11:23:34;25.90;99.90
46492;DHT22;32206;51.446;6.792;2022-08-07T11:28:46;26.10;99.90
46492;DHT22;32206;51.446;6.792;2022-08-07T11:34:24;26.10;99.90
46492;DHT22;32206;51.446;6.792;2022-08-07T11:51:08;26.90;99.90
46492;DHT22;32206;51.446;6.792;2022-08-07T11:59:40;27.30;99.90
46492;DHT22;32206;51.446;6.792;2022-08-07T12:07:50;27.30;99.90
46492;DHT22;32206;51.446;6.792;2022-08-07T12:10:54;27.40;99.90
46492;DHT22;32206;51.446;6.792;2022-08-07T12:16:09;27.40;99.90
46492;DHT22;32206;51.446;6.792;2022-08-07T12:23:58;27.70;99.90
46492;DHT22;32206;51.446;6.792;2022-08-07T12:29:11;27.80;99.90
46492;DHT22;32206;51.446;6.792;2022-08-07T12:31:42;27.70;99.90
46492;DHT22;32206;51.446;6.792;2022-08-07T12:34:10;27.70;99.90
46492;DHT22;32206;51.446;6.792;2022-08-07T12:36:37;27.70;99.90
46492;DHT22;32206;51.446;6.792;2022-08-07T12:39:05;27.90;99.90
46492;DHT22;32206;51.446;6.792;2022-08-07T12:41:33;27.90;99.90
46492;DHT22;32206;51.446;6.792;2022-08-07T12:44:04;27.90;99.90
46492;DHT22;32206;51.446;6.792;2022-08-07T12:49:21;28.00;99.90
46492;DHT22;32206;51.446;6.792;2022-08-07T12:52:12;28.10;99.90
46492;DHT22;32206;51.446;6.792;2022-08-07T12:54:59;28.20;99.90
46492;DHT22;32206;51.446;6.792;2022-08-07T12:57:30;28.20;99.90
46492;DHT22;32206;51.446;6.792;2022-08-07T12:59:58;28.30;99.90
46492;DHT22;32206;51.446;6.792;2022-08-07T13:13:39;28.60;99.90
46492;DHT22;32206;51.446;6.792;2022-08-07T13:19:15;28.60;99.90
46492;DHT22;32206;51.446;6.792;2022-08-07T13:21:45;28.70;99.90
46492;DHT22;32206;51.446;6.792;2022-08-07T13:24:35;28.80;99.90
46492;DHT22;32206;51.446;6.792;2022-08-07T13:27:17;28.80;99.90
46492;DHT22;32206;51.446;6.792;2022-08-07T13:29:58;28.80;99.90
46492;DHT22;32206;51.446;6.792;2022-08-07T13:32:44;28.80;99.90
46492;DHT22;32206;51.446;6.792;2022-08-07T13:35:21;28.80;99.90
46492;DHT22;32206;51.446;6.792;2022-08-07T13:43:29;28.80;99.90
46492;DHT22;32206;51.446;6.792;2022-08-07T13:45:59;28.80;99.90
46492;DHT22;32206;51.446;6.792;2022-08-07T13:48:28;28.70;99.90
46492;DHT22;32206;51.446;6.792;2022-08-07T13:50:54;28.50;99.90
46492;DHT22;32206;51.446;6.792;2022-08-07T13:53:27;28.40;99.90
46492;DHT22;32206;51.446;6.792;2022-08-07T13:55:55;28.40;99.90
46492;DHT22;32206;51.446;6.792;2022-08-07T13:58:26;28.40;99.90
46492;DHT22;32206;51.446;6.792;2022-08-07T14:01:14;28.40;99.90
46492;DHT22;32206;51.446;6.792;2022-08-07T14:03:41;28.40;99.90
46492;DHT22;32206;51.446;6.792;2022-08-07T14:06:08;28.50;99.90
46492;DHT22;32206;51.446;6.792;2022-08-07T14:08:54;28.50;99.90
46492;DHT22;32206;51.446;6.792;2022-08-07T14:11:21;28.50;99.90
46492;DHT22;32206;51.446;6.792;2022-08-07T14:13:53;28.50;99.90
46492;DHT22;32206;51.446;6.792;2022-08-07T14:16:25;28.30;99.90
46492;DHT22;32206;51.446;6.792;2022-08-07T14:18:55;28.20;99.90
46492;DHT22;32206;51.446;6.792;2022-08-07T14:21:34;28.10;99.90
46492;DHT22;32206;51.446;6.792;2022-08-07T14:24:06;28.10;99.90
46492;DHT22;32206;51.446;6.792;2022-08-07T14:26:47;28.00;99.90
46492;DHT22;32206;51.446;6.792;2022-08-07T14:29:39;28.00;99.90
46492;DHT22;32206;51.446;6.792;2022-08-07T14:32:08;27.90;99.90
46492;DHT22;32206;51.446;6.792;2022-08-07T14:34:38;28.00;99.90
46492;DHT22;32206;51.446;6.792;2022-08-07T14:37:08;28.10;99.90
46492;DHT22;32206;51.446;6.792;2022-08-07T14:39:37;28.10;99.90
46492;DHT22;32206;51.446;6.792;2022-08-07T14:42:05;28.10;99.90
46492;DHT22;32206;51.446;6.792;2022-08-07T14:44:32;28.10;99.90
46492;DHT22;32206;51.446;6.792;2022-08-07T14:47:00;28.10;99.90
46492;DHT22;32206;51.446;6.792;2022-08-07T14:49:32;28.00;99.90
46492;DHT22;32206;51.446;6.792;2022-08-07T14:52:00;27.80;99.90
46492;DHT22;32206;51.446;6.792;2022-08-07T14:54:31;27.70;99.90
46492;DHT22;32206;51.446;6.792;2022-08-07T14:56:59;27.70;99.90
46492;DHT22;32206;51.446;6.792;2022-08-07T14:59:27;27.70;99.90
46492;DHT22;32206;51.446;6.792;2022-08-07T15:01:56;27.80;99.90
46492;DHT22;32206;51.446;6.792;2022-08-07T15:04:23;27.90;99.90
46492;DHT22;32206;51.446;6.792;2022-08-07T15:06:51;28.00;99.90
46492;DHT22;32206;51.446;6.792;2022-08-07T15:09:17;27.90;99.90
46492;DHT22;32206;51.446;6.792;2022-08-07T15:11:58;28.00;99.90
46492;DHT22;32206;51.446;6.792;2022-08-07T15:14:27;28.00;99.90
46492;DHT22;32206;51.446;6.792;2022-08-07T15:17:10;27.90;99.90
46492;DHT22;32206;51.446;6.792;2022-08-07T15:19:47;27.90;99.90
46492;DHT22;32206;51.446;6.792;2022-08-07T15:22:15;28.00;99.90
46492;DHT22;32206;51.446;6.792;2022-08-07T15:24:46;28.00;99.90
46492;DHT22;32206;51.446;6.792;2022-08-07T15:27:24;28.00;99.90
46492;DHT22;32206;51.446;6.792;2022-08-07T15:29:54;28.10;99.90
46492;DHT22;32206;51.446;6.792;2022-08-07T15:32:23;28.10;99.90
46492;DHT22;32206;51.446;6.792;2022-08-07T15:34:54;28.20;99.90
46492;DHT22;32206;51.446;6.792;2022-08-07T15:37:28;28.20;99.90
46492;DHT22;32206;51.446;6.792;2022-08-07T15:39:57;28.10;99.90
46492;DHT22;32206;51.446;6.792;2022-08-07T15:47:52;28.10;99.90
46492;DHT22;32206;51.446;6.792;2022-08-07T15:50:20;28.00;99.90
46492;DHT22;32206;51.446;6.792;2022-08-07T15:52:51;28.00;99.90
46492;DHT22;32206;51.446;6.792;2022-08-07T15:55:23;28.00;99.90
46492;DHT22;32206;51.446;6.792;2022-08-07T15:57:51;28.10;99.90
46492;DHT22;32206;51.446;6.792;2022-08-07T16:00:20;28.00;99.90
46492;DHT22;32206;51.446;6.792;2022-08-07T16:02:47;28.00;99.90
46492;DHT22;32206;51.446;6.792;2022-08-07T16:05:19;28.00;99.90
46492;DHT22;32206;51.446;6.792;2022-08-07T16:07:53;27.90;99.90
46492;DHT22;32206;51.446;6.792;2022-08-07T16:10:26;28.00;99.90
46492;DHT22;32206;51.446;6.792;2022-08-07T16:21:07;28.00;99.90
46492;DHT22;32206;51.446;6.792;2022-08-07T16:26:48;28.00;99.90
46492;DHT22;32206;51.446;6.792;2022-08-07T16:32:22;28.00;99.90
46492;DHT22;32206;51.446;6.792;2022-08-07T16:35:06;28.00;99.90
46492;DHT22;32206;51.446;6.792;2022-08-07T16:38:03;28.00;99.90
46492;DHT22;32206;51.446;6.792;2022-08-07T16:40:52;28.00;99.90
46492;DHT22;32206;51.446;6.792;2022-08-07T16:43:36;27.90;99.90
46492;DHT22;32206;51.446;6.792;2022-08-07T16:52:12;27.70;99.90
46492;DHT22;32206;51.446;6.792;2022-08-07T17:00:14;27.50;99.90
46492;DHT22;32206;51.446;6.792;2022-08-07T17:03:15;27.50;99.90
46492;DHT22;32206;51.446;6.792;2022-08-07T17:08:37;27.50;99.90
46492;DHT22;32206;51.446;6.792;2022-08-07T17:11:09;27.40;99.90
46492;DHT22;32206;51.446;6.792;2022-08-07T17:13:38;27.50;99.90
46492;DHT22;32206;51.446;6.792;2022-08-07T17:18:42;27.40;99.90
46492;DHT22;32206;51.446;6.792;2022-08-07T17:21:19;27.30;99.90
46492;DHT22;32206;51.446;6.792;2022-08-07T17:26:35;27.10;99.90
46492;DHT22;32206;51.446;6.792;2022-08-07T17:29:16;27.00;99.90
46492;DHT22;32206;51.446;6.792;2022-08-07T17:31:52;26.80;99.90
46492;DHT22;32206;51.446;6.792;2022-08-07T17:34:28;26.80;99.90
46492;DHT22;32206;51.446;6.792;2022-08-07T17:37:03;26.80;99.90
46492;DHT22;32206;51.446;6.792;2022-08-07T17:39:37;26.70;99.90
46492;DHT22;32206;51.446;6.792;2022-08-07T17:42:18;26.70;99.90
46492;DHT22;32206;51.446;6.792;2022-08-07T17:44:50;26.70;99.90
46492;DHT22;32206;51.446;6.792;2022-08-07T17:47:22;26.60;99.90
46492;DHT22;32206;51.446;6.792;2022-08-07T17:49:58;26.60;99.90
46492;DHT22;32206;51.446;6.792;2022-08-07T17:52:35;26.50;99.90
46492;DHT22;32206;51.446;6.792;2022-08-07T17:55:12;26.50;99.90
46492;DHT22;32206;51.446;6.792;2022-08-07T18:00:15;26.40;99.90
46492;DHT22;32206;51.446;6.792;2022-08-07T18:03:09;26.30;99.90
46492;DHT22;32206;51.446;6.792;2022-08-07T18:05:47;26.10;99.90
46492;DHT22;32206;51.446;6.792;2022-08-07T18:08:30;26.00;99.90
46492;DHT22;32206;51.446;6.792;2022-08-07T18:17:04;25.80;99.90
46492;DHT22;32206;51.446;6.792;2022-08-07T18:22:14;25.80;99.90
46492;DHT22;32206;51.446;6.792;2022-08-07T18:24:52;25.80;99.90
46492;DHT22;32206;51.446;6.792;2022-08-07T18:32:20;26.00;99.90
46492;DHT22;32206;51.446;6.792;2022-08-07T18:34:52;26.20;99.90
46492;DHT22;32206;51.446;6.792;2022-08-07T18:38:04;26.20;99.90
46492;DHT22;32206;51.446;6.792;2022-08-07T18:41:02;26.10;99.90
46492;DHT22;32206;51.446;6.792;2022-08-07T18:49:21;25.70;99.90
46492;DHT22;32206;51.446;6.792;2022-08-07T18:52:02;25.50;99.90
46492;DHT22;32206;51.446;6.792;2022-08-07T18:55:02;25.40;99.90
46492;DHT22;32206;51.446;6.792;2022-08-07T19:00:44;25.20;99.90
46492;DHT22;32206;51.446;6.792;2022-08-07T19:03:19;25.10;99.90
46492;DHT22;32206;51.446;6.792;2022-08-07T19:05:52;25.10;99.90
46492;DHT22;32206;51.446;6.792;2022-08-07T19:08:39;25.00;99.90
46492;DHT22;32206;51.446;6.792;2022-08-07T19:11:13;24.90;99.90
46492;DHT22;32206;51.446;6.792;2022-08-07T19:16:30;24.70;99.90
46492;DHT22;32206;51.446;6.792;2022-08-07T19:24:17;24.50;99.90
46492;DHT22;32206;51.446;6.792;2022-08-07T19:26:48;24.50;99.90
46492;DHT22;32206;51.446;6.792;2022-08-07T19:29:15;24.40;99.90
46492;DHT22;32206;51.446;6.792;2022-08-07T19:31:52;24.40;99.90
46492;DHT22;32206;51.446;6.792;2022-08-07T19:34:23;24.30;99.90
46492;DHT22;32206;51.446;6.792;2022-08-07T19:36:53;24.20;99.90
46492;DHT22;32206;51.446;6.792;2022-08-07T19:39:25;24.10;99.90
46492;DHT22;32206;51.446;6.792;2022-08-07T19:41:55;24.10;99.90